createdAt,value
2019-03-28T00:01:42.725Z,8.30
2019-03-28T00:04:12.464Z,8.30
2019-03-28T00:06:42.197Z,8.30
2019-03-28T00:09:11.945Z,8.20
2019-03-28T00:11:41.685Z,8.20
2019-03-28T00:14:11.456Z,8.20
2019-03-28T00:16:41.202Z,8.20
2019-03-28T00:19:10.959Z,8.20
2019-03-28T00:21:40.737Z,8.20
2019-03-28T00:24:29.547Z,8.20
2019-03-28T00:26:59.375Z,8.20
2019-03-28T00:29:29.176Z,8.20
2019-03-28T00:31:59.020Z,8.20
2019-03-28T00:34:28.847Z,8.20
2019-03-28T00:36:58.607Z,8.20
2019-03-28T00:39:28.363Z,8.20
2019-03-28T00:41:58.134Z,8.20
2019-03-28T00:44:27.856Z,8.20
2019-03-28T00:46:57.592Z,8.20
2019-03-28T00:49:27.394Z,8.20
2019-03-28T00:51:57.171Z,8.20
2019-03-28T00:54:26.939Z,8.10
2019-03-28T00:56:56.688Z,8.10
2019-03-28T00:59:26.447Z,8.10
2019-03-28T01:01:56.225Z,8.10
2019-03-28T01:04:25.920Z,8.10
2019-03-28T01:06:55.677Z,8.10
2019-03-28T01:09:25.400Z,8.10
2019-03-28T01:11:55.308Z,8.00
2019-03-28T01:14:25.151Z,8.00
2019-03-28T01:16:54.910Z,8.00
2019-03-28T01:19:24.665Z,8.00
2019-03-28T01:21:54.395Z,8.00
2019-03-28T01:24:24.182Z,8.00
2019-03-28T01:26:57.414Z,7.90
2019-03-28T01:29:25.335Z,7.90
2019-03-28T01:31:55.171Z,7.90
2019-03-28T01:34:24.903Z,7.90
2019-03-28T01:36:54.663Z,7.90
2019-03-28T01:39:24.415Z,7.90
2019-03-28T01:41:54.196Z,7.90
2019-03-28T01:44:24.040Z,7.90
2019-03-28T01:46:53.836Z,8.00
2019-03-28T01:49:24.374Z,8.00
2019-03-28T01:51:54.253Z,8.00
2019-03-28T01:54:24.012Z,7.90
2019-03-28T01:56:53.740Z,8.00
2019-03-28T01:59:23.492Z,8.00
2019-03-28T02:01:53.356Z,8.00
2019-03-28T02:04:23.122Z,8.00
2019-03-28T02:06:52.852Z,8.00
2019-03-28T02:09:23.072Z,8.00
2019-03-28T02:11:52.889Z,8.00
2019-03-28T02:14:22.619Z,8.00
2019-03-28T02:16:52.392Z,8.00
2019-03-28T02:19:22.135Z,8.00
2019-03-28T02:21:51.930Z,8.00
2019-03-28T02:24:21.667Z,8.00
2019-03-28T02:26:51.530Z,8.00
2019-03-28T02:29:21.287Z,8.00
2019-03-28T02:31:51.047Z,8.00
2019-03-28T02:34:20.947Z,8.00
2019-03-28T02:36:50.730Z,8.00
2019-03-28T02:39:20.469Z,8.00
2019-03-28T02:41:50.217Z,8.00
2019-03-28T02:44:19.999Z,8.00
2019-03-28T02:46:49.734Z,8.00
2019-03-28T02:49:19.933Z,8.00
2019-03-28T02:51:50.002Z,8.00
2019-03-28T02:54:19.757Z,8.00
2019-03-28T02:56:49.621Z,8.00
2019-03-28T02:59:19.397Z,8.00
2019-03-28T03:01:49.310Z,8.00
2019-03-28T03:04:19.044Z,8.00
2019-03-28T03:06:48.866Z,8.00
2019-03-28T03:09:18.665Z,8.00
2019-03-28T03:11:48.516Z,8.00
2019-03-28T03:14:18.291Z,8.00
2019-03-28T03:16:48.894Z,8.00
2019-03-28T03:19:18.894Z,8.00
2019-03-28T03:21:48.630Z,8.00
2019-03-28T03:24:18.336Z,8.10
2019-03-28T03:26:48.086Z,8.10
2019-03-28T03:29:17.903Z,8.10
2019-03-28T03:31:47.666Z,8.10
2019-03-28T03:34:17.384Z,8.10
2019-03-28T03:36:47.154Z,8.10
2019-03-28T03:39:16.901Z,8.10
2019-03-28T03:41:46.651Z,8.10
2019-03-28T03:44:16.457Z,8.10
2019-03-28T03:46:46.149Z,8.10
2019-03-28T03:49:15.941Z,8.10
2019-03-28T03:51:46.611Z,8.10
2019-03-28T03:54:16.420Z,8.10
2019-03-28T03:56:46.327Z,8.10
2019-03-28T03:59:16.411Z,8.10
2019-03-28T04:01:46.168Z,8.10
2019-03-28T04:04:15.924Z,8.10
2019-03-28T04:06:45.699Z,8.10
2019-03-28T04:09:15.423Z,8.10
2019-03-28T04:11:45.146Z,8.10
2019-03-28T04:14:14.872Z,8.00
2019-03-28T04:16:44.580Z,8.00
2019-03-28T04:19:14.394Z,8.00
2019-03-28T04:21:44.212Z,8.00
2019-03-28T04:24:13.958Z,8.00
2019-03-28T04:26:43.697Z,8.00
2019-03-28T04:29:13.481Z,8.00
2019-03-28T04:31:43.196Z,8.00
2019-03-28T04:34:12.943Z,8.00
2019-03-28T04:36:42.676Z,8.00
2019-03-28T04:39:12.452Z,8.00
2019-03-28T04:41:42.203Z,8.00
2019-03-28T04:44:11.955Z,8.00
2019-03-28T04:46:41.672Z,8.00
2019-03-28T04:49:11.525Z,8.00
2019-03-28T04:51:41.307Z,8.00
2019-03-28T04:54:11.083Z,8.00
2019-03-28T04:56:40.800Z,8.00
2019-03-28T04:59:10.543Z,8.00
2019-03-28T05:01:40.295Z,8.00
2019-03-28T05:04:10.066Z,8.00
2019-03-28T05:06:39.859Z,8.00
2019-03-28T05:09:09.623Z,8.00
2019-03-28T05:11:39.362Z,8.00
2019-03-28T05:14:09.087Z,8.00
2019-03-28T05:16:38.831Z,8.00
2019-03-28T05:19:08.591Z,8.00
2019-03-28T05:21:38.360Z,8.00
2019-03-28T05:24:08.108Z,8.00
2019-03-28T05:26:37.859Z,8.00
2019-03-28T05:29:07.612Z,8.00
2019-03-28T05:31:37.355Z,8.00
2019-03-28T05:34:07.117Z,8.00
2019-03-28T05:36:36.931Z,8.00
2019-03-28T05:39:07.708Z,8.00
2019-03-28T05:41:37.493Z,8.00
2019-03-28T05:44:07.245Z,8.00
2019-03-28T05:46:36.981Z,8.00
2019-03-28T05:49:06.748Z,8.10
2019-03-28T05:51:36.521Z,8.10
2019-03-28T05:54:06.488Z,8.10
2019-03-28T05:56:36.237Z,8.10
2019-03-28T05:59:11.063Z,8.10
2019-03-28T06:01:37.494Z,8.10
2019-03-28T06:04:07.257Z,8.10
2019-03-28T06:06:36.974Z,8.10
2019-03-28T06:09:08.023Z,8.10
2019-03-28T06:11:37.779Z,8.10
2019-03-28T06:14:07.523Z,8.10
2019-03-28T06:16:37.257Z,8.10
2019-03-28T06:19:06.998Z,8.20
2019-03-28T06:21:39.492Z,8.20
2019-03-28T06:24:08.167Z,8.20
2019-03-28T06:26:37.915Z,8.20
2019-03-28T06:29:08.753Z,8.20
2019-03-28T06:31:38.668Z,8.30
2019-03-28T06:34:08.511Z,8.30
2019-03-28T06:36:38.248Z,8.30
2019-03-28T06:39:07.995Z,8.30
2019-03-28T06:41:37.862Z,8.30
2019-03-28T06:44:07.630Z,8.30
2019-03-28T06:46:37.357Z,8.30
2019-03-28T06:49:07.124Z,8.30
2019-03-28T06:51:36.879Z,8.40
2019-03-28T06:54:06.856Z,8.40
2019-03-28T06:56:36.591Z,8.50
2019-03-28T06:59:06.388Z,8.50
2019-03-28T07:01:36.098Z,8.50
2019-03-28T07:04:05.913Z,8.60
2019-03-28T07:06:35.699Z,8.60
2019-03-28T07:09:08.295Z,8.60
2019-03-28T07:11:38.157Z,8.60
2019-03-28T07:14:07.872Z,8.60
2019-03-28T07:16:39.636Z,8.60
2019-03-28T07:19:09.448Z,8.60
2019-03-28T07:21:39.156Z,8.70
2019-03-28T07:24:09.034Z,8.70
2019-03-28T07:26:38.835Z,8.70
2019-03-28T07:29:08.653Z,8.70
2019-03-28T07:31:38.540Z,8.80
2019-03-28T07:34:08.252Z,8.80
2019-03-28T07:36:38.011Z,8.80
2019-03-28T07:39:08.499Z,8.80
2019-03-28T07:41:38.277Z,8.80
2019-03-28T07:44:08.029Z,8.90
2019-03-28T07:46:37.800Z,8.90
2019-03-28T07:49:07.524Z,8.90
2019-03-28T07:51:37.311Z,9.00
2019-03-28T07:54:07.154Z,9.00
2019-03-28T07:56:36.915Z,9.00
2019-03-28T07:59:06.655Z,9.10
2019-03-28T08:01:36.423Z,9.10
2019-03-28T08:04:06.214Z,9.20
2019-03-28T08:06:48.829Z,9.30
2019-03-28T08:09:09.660Z,9.30
2019-03-28T08:11:39.431Z,9.30
2019-03-28T08:14:09.135Z,9.40
2019-03-28T08:16:38.886Z,9.40
2019-03-28T08:19:08.640Z,9.40
2019-03-28T08:21:38.358Z,9.50
2019-03-28T08:24:08.103Z,9.50
2019-03-28T08:26:37.941Z,9.50
2019-03-28T08:29:07.723Z,9.50
2019-03-28T08:31:40.689Z,9.50
2019-03-28T08:34:10.800Z,9.50
2019-03-28T08:36:41.011Z,9.60
2019-03-28T08:39:10.846Z,9.60
2019-03-28T08:41:40.653Z,9.60
2019-03-28T08:44:10.780Z,9.60
2019-03-28T08:46:40.648Z,9.70
2019-03-28T08:49:10.529Z,9.80
2019-03-28T08:51:40.300Z,9.80
2019-03-28T08:54:10.176Z,9.90
2019-03-28T08:56:39.948Z,9.90
2019-03-28T08:59:09.724Z,10.00
2019-03-28T09:01:39.486Z,10.00
2019-03-28T09:04:09.316Z,10.00
2019-03-28T09:06:39.163Z,10.10
2019-03-28T09:09:10.595Z,10.10
2019-03-28T09:11:40.337Z,10.10
2019-03-28T09:14:10.157Z,10.20
2019-03-28T09:16:40.028Z,10.20
2019-03-28T09:19:09.876Z,10.10
2019-03-28T09:21:40.010Z,10.10
2019-03-28T09:24:09.730Z,10.20
2019-03-28T09:26:39.521Z,10.20
2019-03-28T09:29:09.295Z,10.30
2019-03-28T09:31:39.115Z,10.30
2019-03-28T09:34:08.889Z,10.40
2019-03-28T09:36:38.655Z,10.50
2019-03-28T09:39:10.188Z,10.50
2019-03-28T09:41:39.919Z,10.50
2019-03-28T09:44:09.613Z,10.50
2019-03-28T09:46:39.423Z,10.60
2019-03-28T09:49:09.168Z,10.60
2019-03-28T09:51:38.923Z,10.60
2019-03-28T09:54:08.667Z,10.60
2019-03-28T09:56:38.519Z,10.60
2019-03-28T09:59:08.272Z,10.60
2019-03-28T10:01:38.063Z,10.60
2019-03-28T10:04:07.768Z,10.60
2019-03-28T10:06:37.534Z,10.70
2019-03-28T10:09:08.123Z,10.80
2019-03-28T10:11:37.856Z,10.90
2019-03-28T10:14:07.644Z,10.90
2019-03-28T10:16:40.253Z,10.90
2019-03-28T10:19:08.776Z,11.00
2019-03-28T10:21:38.649Z,11.10
2019-03-28T10:24:08.424Z,11.30
2019-03-28T10:26:38.185Z,11.50
2019-03-28T10:29:08.048Z,11.60
2019-03-28T10:31:37.818Z,11.70
2019-03-28T10:34:07.610Z,11.80
2019-03-28T10:36:37.383Z,11.80
2019-03-28T10:39:08.960Z,11.80
2019-03-28T10:41:39.990Z,11.80
2019-03-28T10:44:10.099Z,11.70
2019-03-28T10:46:39.774Z,11.70
2019-03-28T10:49:09.475Z,11.70
2019-03-28T10:51:39.265Z,11.60
2019-03-28T10:54:19.455Z,11.50
2019-03-28T10:56:51.093Z,11.50
2019-03-28T10:59:22.756Z,11.50
2019-03-28T11:01:50.242Z,11.50
2019-03-28T11:04:14.683Z,11.50
2019-03-28T11:06:45.481Z,11.60
2019-03-28T11:09:15.307Z,11.70
2019-03-28T11:11:45.047Z,11.80
2019-03-28T11:14:14.765Z,11.90
2019-03-28T11:16:47.962Z,11.90
2019-03-28T11:19:17.532Z,12.00
2019-03-28T11:21:47.605Z,12.00
2019-03-28T11:24:17.468Z,12.00
2019-03-28T11:26:47.216Z,12.00
2019-03-28T11:29:16.947Z,11.90
2019-03-28T11:31:50.600Z,11.80
2019-03-28T11:34:18.889Z,11.80
2019-03-28T11:36:48.567Z,11.80
2019-03-28T11:39:18.311Z,11.90
2019-03-28T11:41:48.067Z,12.10
2019-03-28T11:44:17.857Z,12.30
2019-03-28T11:46:47.608Z,12.50
2019-03-28T11:49:17.346Z,12.80
2019-03-28T11:51:47.200Z,13.00
2019-03-28T11:54:16.969Z,13.10
2019-03-28T11:56:46.703Z,13.20
2019-03-28T11:59:16.435Z,13.40
2019-03-28T12:01:59.113Z,13.80
2019-03-28T12:04:17.599Z,14.10
2019-03-28T12:06:48.895Z,14.20
2019-03-28T12:09:19.773Z,14.40
2019-03-28T12:11:52.666Z,14.40
2019-03-28T12:14:21.017Z,14.40
2019-03-28T12:16:50.736Z,14.40
2019-03-28T12:19:20.476Z,14.40
2019-03-28T12:21:50.246Z,14.20
2019-03-28T12:24:19.973Z,14.00
2019-03-28T12:26:49.751Z,13.70
2019-03-28T12:29:19.588Z,13.50
2019-03-28T12:31:49.315Z,13.40
2019-03-28T12:34:19.077Z,13.40
2019-03-28T12:36:48.819Z,13.40
2019-03-28T12:39:18.583Z,13.40
2019-03-28T12:41:48.378Z,13.40
2019-03-28T12:44:18.115Z,13.30
2019-03-28T12:46:47.891Z,13.10
2019-03-28T12:49:17.642Z,13.00
2019-03-28T12:51:47.400Z,12.90
2019-03-28T12:54:17.163Z,12.70
2019-03-28T12:56:46.931Z,12.70
2019-03-28T12:59:16.659Z,12.60
2019-03-28T13:01:46.399Z,12.60
2019-03-28T13:04:16.131Z,12.70
2019-03-28T13:06:45.865Z,12.70
2019-03-28T13:09:15.611Z,12.70
2019-03-28T13:11:45.779Z,12.90
2019-03-28T13:14:15.831Z,13.00
2019-03-28T13:16:45.560Z,13.10
2019-03-28T13:19:15.821Z,13.10
2019-03-28T13:21:46.518Z,13.10
2019-03-28T13:24:17.556Z,13.10
2019-03-28T13:26:48.336Z,13.00
2019-03-28T13:29:19.175Z,12.90
2019-03-28T13:31:49.722Z,12.90
2019-03-28T13:34:20.948Z,12.90
2019-03-28T13:36:51.456Z,13.00
2019-03-28T13:39:21.919Z,13.10
2019-03-28T13:41:53.140Z,13.20
2019-03-28T13:44:24.551Z,13.20
2019-03-28T13:46:55.109Z,13.20
2019-03-28T13:49:25.334Z,13.20
2019-03-28T13:51:55.740Z,13.20
2019-03-28T13:54:25.762Z,13.20
2019-03-28T13:56:56.503Z,13.10
2019-03-28T13:59:27.154Z,13.10
2019-03-28T14:01:59.273Z,13.00
2019-03-28T14:04:29.435Z,13.00
2019-03-28T14:07:00.556Z,13.00
2019-03-28T14:09:30.536Z,12.90
2019-03-28T14:12:00.431Z,12.90
2019-03-28T14:14:30.384Z,12.80
2019-03-28T14:17:00.275Z,12.70
2019-03-28T14:19:30.304Z,12.70
2019-03-28T14:22:00.409Z,12.60
2019-03-28T14:24:30.500Z,12.50
2019-03-28T14:27:00.255Z,12.50
2019-03-28T14:29:30.250Z,12.40
2019-03-28T14:32:01.708Z,12.40
2019-03-28T14:34:31.897Z,12.40
2019-03-28T14:37:01.736Z,12.40
2019-03-28T14:39:31.776Z,12.40
2019-03-28T14:42:01.733Z,12.50
2019-03-28T14:44:31.714Z,12.60
2019-03-28T14:47:01.764Z,12.60
2019-03-28T14:49:31.741Z,12.60
2019-03-28T14:52:01.991Z,12.60
2019-03-28T14:54:31.860Z,12.70
2019-03-28T14:57:02.530Z,12.70
2019-03-28T14:59:34.621Z,12.80
2019-03-28T15:02:04.570Z,12.80
2019-03-28T15:04:34.367Z,12.80
2019-03-28T15:07:07.173Z,12.90
2019-03-28T15:09:36.056Z,12.80
2019-03-28T15:12:06.097Z,12.80
2019-03-28T15:14:35.970Z,12.70
2019-03-28T15:17:05.802Z,12.70
2019-03-28T15:19:35.594Z,12.70
2019-03-28T15:22:05.358Z,12.70
2019-03-28T15:24:35.175Z,12.70
2019-03-28T15:27:05.301Z,12.70
2019-03-28T15:29:35.192Z,12.70
2019-03-28T15:32:04.994Z,12.70
2019-03-28T15:34:34.796Z,12.60
2019-03-28T15:37:04.688Z,12.60
2019-03-28T15:39:34.464Z,12.60
2019-03-28T15:42:04.316Z,12.60
2019-03-28T15:44:34.136Z,12.60
2019-03-28T15:47:03.942Z,12.60
2019-03-28T15:49:33.671Z,12.60
2019-03-28T15:52:08.980Z,12.60
2019-03-28T15:54:38.699Z,12.60
2019-03-28T15:57:08.547Z,12.60
2019-03-28T15:59:38.401Z,12.60
2019-03-28T16:02:08.285Z,12.60
2019-03-28T16:04:38.748Z,12.60
2019-03-28T16:07:08.734Z,12.60
2019-03-28T16:09:40.289Z,12.60
2019-03-28T16:12:10.308Z,12.60
2019-03-28T16:14:40.076Z,12.60
2019-03-28T16:17:10.384Z,12.60
2019-03-28T16:19:40.495Z,12.60
2019-03-28T16:22:11.631Z,12.60
2019-03-28T16:24:42.169Z,12.60
2019-03-28T16:27:12.192Z,12.60
2019-03-28T16:29:42.167Z,12.60
2019-03-28T16:32:12.471Z,12.60
2019-03-28T16:34:43.589Z,12.60
2019-03-28T16:37:13.969Z,12.70
2019-03-28T16:39:43.917Z,12.70
2019-03-28T16:42:14.138Z,12.70
2019-03-28T16:44:43.998Z,12.60
2019-03-28T16:47:13.756Z,12.60
2019-03-28T16:49:43.504Z,12.60
2019-03-28T16:52:13.289Z,12.50
2019-03-28T16:54:43.163Z,12.50
2019-03-28T16:57:13.009Z,12.50
2019-03-28T16:59:42.807Z,12.40
2019-03-28T17:02:12.774Z,12.40
2019-03-28T17:04:42.743Z,12.40
2019-03-28T17:07:13.207Z,12.30
2019-03-28T17:09:43.622Z,12.20
2019-03-28T17:12:15.609Z,12.20
2019-03-28T17:14:45.818Z,12.20
2019-03-28T17:17:15.831Z,12.10
2019-03-28T17:19:45.651Z,12.10
2019-03-28T17:22:15.843Z,12.10
2019-03-28T17:24:46.213Z,12.00
2019-03-28T17:27:16.354Z,12.00
2019-03-28T17:29:46.690Z,11.90
2019-03-28T17:32:16.741Z,11.90
2019-03-28T17:34:46.860Z,11.90
2019-03-28T17:37:17.322Z,11.80
2019-03-28T17:39:48.304Z,11.80
2019-03-28T17:42:18.471Z,11.80
2019-03-28T17:44:48.871Z,11.70
2019-03-28T17:47:19.093Z,11.70
2019-03-28T17:49:48.942Z,11.70
2019-03-28T17:52:18.711Z,11.70
2019-03-28T17:54:48.468Z,11.60
2019-03-28T17:57:18.217Z,11.60
2019-03-28T17:59:48.094Z,11.60
2019-03-28T18:02:17.831Z,11.60
2019-03-28T18:04:48.388Z,11.50
2019-03-28T18:07:18.248Z,11.60
2019-03-28T18:09:47.985Z,11.60
2019-03-28T18:12:17.723Z,11.60
2019-03-28T18:14:47.548Z,11.50
2019-03-28T18:17:17.348Z,11.50
2019-03-28T18:19:47.164Z,11.50
2019-03-28T18:22:16.895Z,11.50
2019-03-28T18:24:46.664Z,11.50
2019-03-28T18:27:17.042Z,11.40
2019-03-28T18:29:47.464Z,11.40
2019-03-28T18:32:17.199Z,11.40
2019-03-28T18:34:51.077Z,11.40
2019-03-28T18:37:18.796Z,11.40
2019-03-28T18:39:48.782Z,11.40
2019-03-28T18:42:18.534Z,11.40
2019-03-28T18:44:48.691Z,11.40
2019-03-28T18:47:18.498Z,11.40
2019-03-28T18:49:48.252Z,11.40
2019-03-28T18:52:18.142Z,11.30
2019-03-28T18:54:47.883Z,11.30
2019-03-28T18:57:19.746Z,11.30
2019-03-28T18:59:49.692Z,11.30
2019-03-28T19:02:19.476Z,11.30
2019-03-28T19:04:49.233Z,11.30
2019-03-28T19:07:18.976Z,11.30
2019-03-28T19:09:48.831Z,11.30
2019-03-28T19:12:18.550Z,11.20
2019-03-28T19:14:48.392Z,11.20
2019-03-28T19:17:18.141Z,11.20
2019-03-28T19:19:49.285Z,11.20
2019-03-28T19:22:19.839Z,11.20
2019-03-28T19:24:50.611Z,11.10
2019-03-28T19:27:20.323Z,11.10
2019-03-28T19:29:50.068Z,11.10
2019-03-28T19:32:19.822Z,11.10
2019-03-28T19:34:49.567Z,11.10
2019-03-28T19:37:22.805Z,11.10
2019-03-28T19:39:52.880Z,11.10
2019-03-28T19:42:22.708Z,11.10
2019-03-28T19:44:52.975Z,11.10
2019-03-28T19:47:22.711Z,11.00
2019-03-28T19:49:52.475Z,11.00
2019-03-28T19:52:22.211Z,11.00
2019-03-28T19:54:51.954Z,11.00
2019-03-28T19:57:21.720Z,11.00
2019-03-28T19:59:51.814Z,11.00
2019-03-28T20:02:21.711Z,10.90
2019-03-28T20:04:51.539Z,10.90
2019-03-28T20:07:23.085Z,11.00
2019-03-28T20:09:52.807Z,11.00
2019-03-28T20:12:22.544Z,10.90
2019-03-28T20:14:52.356Z,10.90
2019-03-28T20:17:22.117Z,10.90
2019-03-28T20:19:51.891Z,10.90
2019-03-28T20:22:21.736Z,10.90
2019-03-28T20:24:51.503Z,10.90
2019-03-28T20:27:21.334Z,10.90
2019-03-28T20:29:51.091Z,10.90
2019-03-28T20:32:20.808Z,10.80
2019-03-28T20:34:50.558Z,10.80
2019-03-28T20:37:20.294Z,10.80
2019-03-28T20:39:50.152Z,10.80
2019-03-28T20:42:19.895Z,10.80
2019-03-28T20:44:49.718Z,10.80
2019-03-28T20:47:19.727Z,10.80
2019-03-28T20:49:49.584Z,10.70
2019-03-28T20:52:19.450Z,10.80
2019-03-28T20:54:49.227Z,10.70
2019-03-28T20:57:19.024Z,10.70
2019-03-28T20:59:48.742Z,10.70
2019-03-28T21:02:18.619Z,10.70
2019-03-28T21:04:48.491Z,10.70
2019-03-28T21:07:20.303Z,10.70
2019-03-28T21:09:50.148Z,10.70
2019-03-28T21:12:19.973Z,10.70
2019-03-28T21:14:49.759Z,10.70
2019-03-28T21:17:19.501Z,10.60
2019-03-28T21:19:49.214Z,10.60
2019-03-28T21:22:18.974Z,10.60
2019-03-28T21:24:48.711Z,10.60
2019-03-28T21:27:20.695Z,10.60
2019-03-28T21:29:51.031Z,10.60
2019-03-28T21:32:21.137Z,10.60
2019-03-28T21:34:50.899Z,10.60
2019-03-28T21:37:20.694Z,10.60
2019-03-28T21:39:50.471Z,10.60
2019-03-28T21:42:20.206Z,10.60
2019-03-28T21:44:49.963Z,10.60
2019-03-28T21:47:19.715Z,10.60
2019-03-28T21:49:49.475Z,10.60
2019-03-28T21:52:19.251Z,10.60
2019-03-28T21:54:48.959Z,10.60
2019-03-28T21:57:18.711Z,10.60
2019-03-28T21:59:48.920Z,10.60
2019-03-28T22:02:18.907Z,10.60
2019-03-28T22:04:48.659Z,10.50
2019-03-28T22:07:18.429Z,10.50
2019-03-28T22:09:48.131Z,10.50
2019-03-28T22:12:17.873Z,10.50
2019-03-28T22:14:48.274Z,10.50
2019-03-28T22:17:18.270Z,10.50
2019-03-28T22:19:47.996Z,10.50
2019-03-28T22:22:17.717Z,10.50
2019-03-28T22:24:47.482Z,10.50
2019-03-28T22:27:17.238Z,10.50
2019-03-28T22:29:47.018Z,10.50
2019-03-28T22:32:16.866Z,10.50
2019-03-28T22:34:46.602Z,10.50
2019-03-28T22:37:16.319Z,10.50
2019-03-28T22:39:46.055Z,10.50
2019-03-28T22:42:15.775Z,10.50
2019-03-28T22:44:45.555Z,10.50
2019-03-28T22:47:15.282Z,10.50
2019-03-28T22:49:45.011Z,10.50
2019-03-28T22:52:15.999Z,10.50
2019-03-28T22:54:46.362Z,10.50
2019-03-28T22:57:16.084Z,10.40
2019-03-28T22:59:45.807Z,10.50
2019-03-28T23:02:15.583Z,10.50
2019-03-28T23:04:45.251Z,10.40
2019-03-28T23:07:14.991Z,10.50
2019-03-28T23:09:44.747Z,10.50
2019-03-28T23:12:14.459Z,10.50
2019-03-28T23:14:44.812Z,10.50
2019-03-28T23:17:14.891Z,10.40
2019-03-28T23:19:44.664Z,10.40
2019-03-28T23:22:14.398Z,10.40
2019-03-28T23:24:44.364Z,10.40
2019-03-28T23:27:14.247Z,10.40
2019-03-28T23:29:43.992Z,10.40
2019-03-28T23:32:13.742Z,10.40
2019-03-28T23:34:43.484Z,10.40
2019-03-28T23:37:24.213Z,10.40
2019-03-28T23:39:44.607Z,10.40
2019-03-28T23:42:17.589Z,10.40
2019-03-28T23:44:45.756Z,10.40
2019-03-28T23:47:15.479Z,10.40
2019-03-28T23:49:45.251Z,10.40
2019-03-28T23:52:15.006Z,10.40
2019-03-28T23:54:44.889Z,10.40
2019-03-28T23:57:14.630Z,10.40
2019-03-28T23:59:44.375Z,10.40
